sensor_id;sensor_type;location;lat;lon;timestamp;P1;durP1;ratioP1;P2;durP2;ratioP2
17175;SDS011;8703;48.996;9.594;2023-09-19T00:02:26;1.92;;;1.00;;
17175;SDS011;8703;48.996;9.594;2023-09-19T00:04:54;2.58;;;0.82;;
17175;SDS011;8703;48.996;9.594;2023-09-19T00:07:21;3.17;;;0.95;;
17175;SDS011;8703;48.996;9.594;2023-09-19T00:09:49;1.38;;;0.80;;
17175;SDS011;8703;48.996;9.594;2023-09-19T00:12:17;1.90;;;1.20;;
17175;SDS011;8703;48.996;9.594;2023-09-19T00:14:44;2.00;;;0.85;;
17175;SDS011;8703;48.996;9.594;2023-09-19T00:17:14;1.80;;;1.10;;
17175;SDS011;8703;48.996;9.594;2023-09-19T00:19:41;2.60;;;1.00;;
17175;SDS011;8703;48.996;9.594;2023-09-19T00:22:09;2.72;;;1.13;;
17175;SDS011;8703;48.996;9.594;2023-09-19T00:24:38;2.70;;;1.02;;
17175;SDS011;8703;48.996;9.594;2023-09-19T00:27:06;3.55;;;1.10;;
17175;SDS011;8703;48.996;9.594;2023-09-19T00:29:33;3.05;;;1.10;;
17175;SDS011;8703;48.996;9.594;2023-09-19T00:32:01;2.13;;;1.08;;
17175;SDS011;8703;48.996;9.594;2023-09-19T00:34:32;3.30;;;1.00;;
17175;SDS011;8703;48.996;9.594;2023-09-19T00:37:00;2.85;;;1.00;;
17175;SDS011;8703;48.996;9.594;2023-09-19T00:39:28;2.55;;;1.02;;
17175;SDS011;8703;48.996;9.594;2023-09-19T00:41:56;2.15;;;1.00;;
17175;SDS011;8703;48.996;9.594;2023-09-19T00:44:29;2.92;;;1.23;;
17175;SDS011;8703;48.996;9.594;2023-09-19T00:46:59;2.33;;;1.20;;
17175;SDS011;8703;48.996;9.594;2023-09-19T00:49:27;2.58;;;1.00;;
17175;SDS011;8703;48.996;9.594;2023-09-19T00:51:57;3.42;;;1.10;;
17175;SDS011;8703;48.996;9.594;2023-09-19T00:54:24;2.45;;;1.00;;
17175;SDS011;8703;48.996;9.594;2023-09-19T00:56:53;2.25;;;0.95;;
17175;SDS011;8703;48.996;9.594;2023-09-19T00:59:20;1.73;;;1.08;;
17175;SDS011;8703;48.996;9.594;2023-09-19T01:01:48;3.35;;;1.30;;
17175;SDS011;8703;48.996;9.594;2023-09-19T01:04:19;4.07;;;1.10;;
17175;SDS011;8703;48.996;9.594;2023-09-19T01:06:46;3.35;;;1.10;;
17175;SDS011;8703;48.996;9.594;2023-09-19T01:09:19;3.05;;;1.00;;
17175;SDS011;8703;48.996;9.594;2023-09-19T01:11:47;3.45;;;1.20;;
17175;SDS011;8703;48.996;9.594;2023-09-19T01:14:20;2.80;;;1.10;;
17175;SDS011;8703;48.996;9.594;2023-09-19T01:16:54;2.45;;;1.13;;
17175;SDS011;8703;48.996;9.594;2023-09-19T01:19:54;2.55;;;1.20;;
17175;SDS011;8703;48.996;9.594;2023-09-19T01:22:46;2.58;;;1.10;;
17175;SDS011;8703;48.996;9.594;2023-09-19T01:25:42;4.15;;;1.35;;
17175;SDS011;8703;48.996;9.594;2023-09-19T01:28:31;1.63;;;1.10;;
17175;SDS011;8703;48.996;9.594;2023-09-19T01:31:06;4.60;;;1.30;;
17175;SDS011;8703;48.996;9.594;2023-09-19T01:33:58;1.88;;;1.27;;
17175;SDS011;8703;48.996;9.594;2023-09-19T01:36:29;2.63;;;1.08;;
17175;SDS011;8703;48.996;9.594;2023-09-19T01:38:59;2.20;;;1.02;;
17175;SDS011;8703;48.996;9.594;2023-09-19T01:41:47;2.38;;;1.05;;
17175;SDS011;8703;48.996;9.594;2023-09-19T01:44:27;1.63;;;0.95;;
17175;SDS011;8703;48.996;9.594;2023-09-19T01:46:59;2.20;;;1.10;;
17175;SDS011;8703;48.996;9.594;2023-09-19T01:49:33;2.33;;;1.05;;
17175;SDS011;8703;48.996;9.594;2023-09-19T01:52:09;2.10;;;0.90;;
17175;SDS011;8703;48.996;9.594;2023-09-19T01:54:40;2.50;;;0.98;;
17175;SDS011;8703;48.996;9.594;2023-09-19T01:57:14;1.75;;;0.90;;
17175;SDS011;8703;48.996;9.594;2023-09-19T01:59:45;1.52;;;0.70;;
17175;SDS011;8703;48.996;9.594;2023-09-19T02:02:18;1.55;;;0.90;;
17175;SDS011;8703;48.996;9.594;2023-09-19T02:04:47;2.80;;;1.15;;
17175;SDS011;8703;48.996;9.594;2023-09-19T02:07:15;1.95;;;0.88;;
17175;SDS011;8703;48.996;9.594;2023-09-19T02:09:43;1.08;;;0.82;;
17175;SDS011;8703;48.996;9.594;2023-09-19T02:12:10;1.88;;;0.90;;
17175;SDS011;8703;48.996;9.594;2023-09-19T02:14:38;3.47;;;1.10;;
17175;SDS011;8703;48.996;9.594;2023-09-19T02:17:06;1.83;;;0.88;;
17175;SDS011;8703;48.996;9.594;2023-09-19T02:19:37;1.42;;;0.80;;
17175;SDS011;8703;48.996;9.594;2023-09-19T02:22:05;1.20;;;0.90;;
17175;SDS011;8703;48.996;9.594;2023-09-19T02:24:35;2.63;;;1.00;;
17175;SDS011;8703;48.996;9.594;2023-09-19T02:27:03;1.38;;;0.80;;
17175;SDS011;8703;48.996;9.594;2023-09-19T02:29:30;1.98;;;0.80;;
17175;SDS011;8703;48.996;9.594;2023-09-19T02:31:59;1.33;;;0.80;;
17175;SDS011;8703;48.996;9.594;2023-09-19T02:34:27;1.80;;;1.00;;
17175;SDS011;8703;48.996;9.594;2023-09-19T02:36:56;2.75;;;1.00;;
17175;SDS011;8703;48.996;9.594;2023-09-19T02:39:24;1.77;;;0.90;;
17175;SDS011;8703;48.996;9.594;2023-09-19T02:41:51;1.65;;;0.95;;
17175;SDS011;8703;48.996;9.594;2023-09-19T02:44:19;2.58;;;1.10;;
17175;SDS011;8703;48.996;9.594;2023-09-19T02:46:46;2.08;;;0.93;;
17175;SDS011;8703;48.996;9.594;2023-09-19T02:49:13;2.53;;;1.00;;
17175;SDS011;8703;48.996;9.594;2023-09-19T02:51:42;1.80;;;0.93;;
17175;SDS011;8703;48.996;9.594;2023-09-19T02:54:12;1.52;;;0.80;;
17175;SDS011;8703;48.996;9.594;2023-09-19T02:56:40;1.08;;;0.90;;
17175;SDS011;8703;48.996;9.594;2023-09-19T02:59:08;2.00;;;0.98;;
17175;SDS011;8703;48.996;9.594;2023-09-19T03:01:36;2.05;;;0.90;;
17175;SDS011;8703;48.996;9.594;2023-09-19T03:04:04;2.15;;;0.90;;
17175;SDS011;8703;48.996;9.594;2023-09-19T03:06:37;1.55;;;0.80;;
17175;SDS011;8703;48.996;9.594;2023-09-19T03:09:04;3.72;;;0.70;;
17175;SDS011;8703;48.996;9.594;2023-09-19T03:11:38;1.75;;;0.98;;
17175;SDS011;8703;48.996;9.594;2023-09-19T03:14:07;2.08;;;0.80;;
17175;SDS011;8703;48.996;9.594;2023-09-19T03:16:35;2.28;;;0.95;;
17175;SDS011;8703;48.996;9.594;2023-09-19T03:19:02;1.98;;;0.90;;
17175;SDS011;8703;48.996;9.594;2023-09-19T03:21:30;3.13;;;1.00;;
17175;SDS011;8703;48.996;9.594;2023-09-19T03:23:57;2.83;;;0.88;;
17175;SDS011;8703;48.996;9.594;2023-09-19T03:26:25;1.63;;;0.82;;
17175;SDS011;8703;48.996;9.594;2023-09-19T03:28:54;4.38;;;1.10;;
17175;SDS011;8703;48.996;9.594;2023-09-19T03:31:21;2.08;;;1.10;;
17175;SDS011;8703;48.996;9.594;2023-09-19T03:33:48;2.83;;;1.17;;
17175;SDS011;8703;48.996;9.594;2023-09-19T03:36:16;1.50;;;1.00;;
17175;SDS011;8703;48.996;9.594;2023-09-19T03:38:43;5.97;;;1.10;;
17175;SDS011;8703;48.996;9.594;2023-09-19T03:41:11;2.97;;;0.93;;
17175;SDS011;8703;48.996;9.594;2023-09-19T03:43:39;2.05;;;1.00;;
17175;SDS011;8703;48.996;9.594;2023-09-19T03:46:08;1.70;;;0.90;;
17175;SDS011;8703;48.996;9.594;2023-09-19T03:48:37;2.17;;;1.05;;
17175;SDS011;8703;48.996;9.594;2023-09-19T03:51:05;1.73;;;1.00;;
17175;SDS011;8703;48.996;9.594;2023-09-19T03:53:32;2.10;;;1.10;;
17175;SDS011;8703;48.996;9.594;2023-09-19T03:55:59;1.30;;;0.90;;
17175;SDS011;8703;48.996;9.594;2023-09-19T03:58:27;1.60;;;0.80;;
17175;SDS011;8703;48.996;9.594;2023-09-19T04:00:55;2.53;;;1.05;;
17175;SDS011;8703;48.996;9.594;2023-09-19T04:03:24;2.53;;;1.13;;
17175;SDS011;8703;48.996;9.594;2023-09-19T04:05:59;2.70;;;1.10;;
17175;SDS011;8703;48.996;9.594;2023-09-19T04:08:27;2.25;;;1.23;;
17175;SDS011;8703;48.996;9.594;2023-09-19T04:10:55;2.95;;;1.30;;
17175;SDS011;8703;48.996;9.594;2023-09-19T04:13:22;3.67;;;1.10;;
17175;SDS011;8703;48.996;9.594;2023-09-19T04:15:49;2.55;;;0.90;;
17175;SDS011;8703;48.996;9.594;2023-09-19T04:18:17;3.20;;;1.05;;
17175;SDS011;8703;48.996;9.594;2023-09-19T04:23:39;3.28;;;1.20;;
17175;SDS011;8703;48.996;9.594;2023-09-19T04:26:06;2.75;;;1.10;;
17175;SDS011;8703;48.996;9.594;2023-09-19T04:28:33;3.13;;;1.20;;
17175;SDS011;8703;48.996;9.594;2023-09-19T04:31:03;3.00;;;1.10;;
17175;SDS011;8703;48.996;9.594;2023-09-19T04:33:32;1.88;;;1.10;;
17175;SDS011;8703;48.996;9.594;2023-09-19T04:36:00;3.70;;;1.08;;
17175;SDS011;8703;48.996;9.594;2023-09-19T04:38:31;3.42;;;1.30;;
17175;SDS011;8703;48.996;9.594;2023-09-19T04:40:59;4.53;;;1.25;;
17175;SDS011;8703;48.996;9.594;2023-09-19T04:43:26;2.08;;;1.10;;
17175;SDS011;8703;48.996;9.594;2023-09-19T04:45:54;2.67;;;1.52;;
17175;SDS011;8703;48.996;9.594;2023-09-19T04:48:21;4.43;;;1.15;;
17175;SDS011;8703;48.996;9.594;2023-09-19T04:50:50;1.83;;;1.17;;
17175;SDS011;8703;48.996;9.594;2023-09-19T04:53:17;1.38;;;0.98;;
17175;SDS011;8703;48.996;9.594;2023-09-19T04:55:51;3.53;;;1.30;;
17175;SDS011;8703;48.996;9.594;2023-09-19T04:58:20;1.90;;;1.00;;
17175;SDS011;8703;48.996;9.594;2023-09-19T05:00:47;2.42;;;0.95;;
17175;SDS011;8703;48.996;9.594;2023-09-19T05:03:16;1.10;;;1.00;;
17175;SDS011;8703;48.996;9.594;2023-09-19T05:05:45;1.95;;;1.02;;
17175;SDS011;8703;48.996;9.594;2023-09-19T05:08:13;2.33;;;1.00;;
17175;SDS011;8703;48.996;9.594;2023-09-19T05:10:40;1.92;;;1.13;;
17175;SDS011;8703;48.996;9.594;2023-09-19T05:13:09;1.48;;;1.00;;
17175;SDS011;8703;48.996;9.594;2023-09-19T05:15:37;1.38;;;1.00;;
17175;SDS011;8703;48.996;9.594;2023-09-19T05:18:04;1.75;;;1.13;;
17175;SDS011;8703;48.996;9.594;2023-09-19T05:20:32;1.00;;;0.90;;
17175;SDS011;8703;48.996;9.594;2023-09-19T05:23:01;1.90;;;1.13;;
17175;SDS011;8703;48.996;9.594;2023-09-19T05:25:33;1.90;;;1.10;;
17175;SDS011;8703;48.996;9.594;2023-09-19T05:28:04;2.13;;;1.15;;
17175;SDS011;8703;48.996;9.594;2023-09-19T05:30:33;2.72;;;1.20;;
17175;SDS011;8703;48.996;9.594;2023-09-19T05:33:03;3.85;;;1.38;;
17175;SDS011;8703;48.996;9.594;2023-09-19T05:35:31;2.90;;;1.10;;
17175;SDS011;8703;48.996;9.594;2023-09-19T05:37:59;1.40;;;1.30;;
17175;SDS011;8703;48.996;9.594;2023-09-19T05:40:26;2.83;;;1.20;;
17175;SDS011;8703;48.996;9.594;2023-09-19T05:42:54;1.73;;;1.20;;
17175;SDS011;8703;48.996;9.594;2023-09-19T05:45:22;1.95;;;1.33;;
17175;SDS011;8703;48.996;9.594;2023-09-19T05:47:51;2.53;;;1.25;;
17175;SDS011;8703;48.996;9.594;2023-09-19T05:50:20;2.92;;;1.27;;
17175;SDS011;8703;48.996;9.594;2023-09-19T05:52:53;2.50;;;1.70;;
17175;SDS011;8703;48.996;9.594;2023-09-19T05:55:21;2.35;;;1.33;;
17175;SDS011;8703;48.996;9.594;2023-09-19T05:57:50;2.20;;;1.45;;
17175;SDS011;8703;48.996;9.594;2023-09-19T06:00:17;4.22;;;1.60;;
17175;SDS011;8703;48.996;9.594;2023-09-19T06:03:00;3.58;;;1.70;;
17175;SDS011;8703;48.996;9.594;2023-09-19T06:05:28;5.18;;;1.95;;
17175;SDS011;8703;48.996;9.594;2023-09-19T06:07:57;3.63;;;1.90;;
17175;SDS011;8703;48.996;9.594;2023-09-19T06:10:25;5.63;;;1.67;;
17175;SDS011;8703;48.996;9.594;2023-09-19T06:12:53;3.15;;;1.70;;
17175;SDS011;8703;48.996;9.594;2023-09-19T06:15:23;3.92;;;2.50;;
17175;SDS011;8703;48.996;9.594;2023-09-19T06:17:51;3.08;;;2.10;;
17175;SDS011;8703;48.996;9.594;2023-09-19T06:20:23;4.30;;;2.10;;
17175;SDS011;8703;48.996;9.594;2023-09-19T06:22:51;3.95;;;2.10;;
17175;SDS011;8703;48.996;9.594;2023-09-19T06:25:19;3.03;;;1.90;;
17175;SDS011;8703;48.996;9.594;2023-09-19T06:27:47;3.78;;;2.25;;
17175;SDS011;8703;48.996;9.594;2023-09-19T06:30:17;2.58;;;2.30;;
17175;SDS011;8703;48.996;9.594;2023-09-19T06:32:44;4.85;;;4.45;;
17175;SDS011;8703;48.996;9.594;2023-09-19T06:35:12;2.92;;;1.90;;
17175;SDS011;8703;48.996;9.594;2023-09-19T06:37:42;3.03;;;1.58;;
17175;SDS011;8703;48.996;9.594;2023-09-19T06:40:10;2.65;;;2.10;;
17175;SDS011;8703;48.996;9.594;2023-09-19T06:42:39;4.53;;;2.00;;
17175;SDS011;8703;48.996;9.594;2023-09-19T06:45:08;2.03;;;1.80;;
17175;SDS011;8703;48.996;9.594;2023-09-19T06:47:38;2.80;;;1.77;;
17175;SDS011;8703;48.996;9.594;2023-09-19T06:50:06;4.18;;;1.80;;
17175;SDS011;8703;48.996;9.594;2023-09-19T06:52:38;1.85;;;1.60;;
17175;SDS011;8703;48.996;9.594;2023-09-19T06:55:07;2.50;;;1.80;;
17175;SDS011;8703;48.996;9.594;2023-09-19T06:57:38;3.33;;;1.60;;
17175;SDS011;8703;48.996;9.594;2023-09-19T07:00:06;3.03;;;1.70;;
17175;SDS011;8703;48.996;9.594;2023-09-19T07:02:40;3.85;;;1.90;;
17175;SDS011;8703;48.996;9.594;2023-09-19T07:05:07;3.92;;;1.77;;
17175;SDS011;8703;48.996;9.594;2023-09-19T07:07:35;2.42;;;1.60;;
17175;SDS011;8703;48.996;9.594;2023-09-19T07:10:03;3.08;;;1.60;;
17175;SDS011;8703;48.996;9.594;2023-09-19T07:12:32;4.22;;;2.88;;
17175;SDS011;8703;48.996;9.594;2023-09-19T07:15:00;3.67;;;1.60;;
17175;SDS011;8703;48.996;9.594;2023-09-19T07:17:28;5.97;;;4.70;;
17175;SDS011;8703;48.996;9.594;2023-09-19T07:19:55;2.58;;;1.50;;
17175;SDS011;8703;48.996;9.594;2023-09-19T07:22:23;3.28;;;1.60;;
17175;SDS011;8703;48.996;9.594;2023-09-19T07:24:52;2.75;;;1.90;;
17175;SDS011;8703;48.996;9.594;2023-09-19T07:27:19;6.00;;;4.25;;
17175;SDS011;8703;48.996;9.594;2023-09-19T07:29:48;5.55;;;3.17;;
17175;SDS011;8703;48.996;9.594;2023-09-19T07:32:16;6.18;;;3.53;;
17175;SDS011;8703;48.996;9.594;2023-09-19T07:34:43;3.85;;;2.08;;
17175;SDS011;8703;48.996;9.594;2023-09-19T07:37:10;3.20;;;2.15;;
17175;SDS011;8703;48.996;9.594;2023-09-19T07:39:40;3.47;;;1.83;;
17175;SDS011;8703;48.996;9.594;2023-09-19T07:42:08;3.70;;;1.90;;
17175;SDS011;8703;48.996;9.594;2023-09-19T07:44:36;2.33;;;1.50;;
17175;SDS011;8703;48.996;9.594;2023-09-19T07:47:05;3.20;;;1.52;;
17175;SDS011;8703;48.996;9.594;2023-09-19T07:49:32;5.07;;;1.77;;
17175;SDS011;8703;48.996;9.594;2023-09-19T07:52:00;4.35;;;1.50;;
17175;SDS011;8703;48.996;9.594;2023-09-19T07:54:27;3.30;;;1.48;;
17175;SDS011;8703;48.996;9.594;2023-09-19T07:57:00;3.65;;;1.70;;
17175;SDS011;8703;48.996;9.594;2023-09-19T07:59:27;2.55;;;1.50;;
17175;SDS011;8703;48.996;9.594;2023-09-19T08:01:55;3.95;;;1.60;;
17175;SDS011;8703;48.996;9.594;2023-09-19T08:04:24;3.78;;;1.30;;
17175;SDS011;8703;48.996;9.594;2023-09-19T08:06:51;5.22;;;1.60;;
17175;SDS011;8703;48.996;9.594;2023-09-19T08:09:21;2.60;;;1.40;;
17175;SDS011;8703;48.996;9.594;2023-09-19T08:11:48;2.85;;;1.40;;
17175;SDS011;8703;48.996;9.594;2023-09-19T08:14:15;4.25;;;1.42;;
17175;SDS011;8703;48.996;9.594;2023-09-19T08:16:43;4.13;;;1.42;;
17175;SDS011;8703;48.996;9.594;2023-09-19T08:19:10;2.70;;;1.40;;
17175;SDS011;8703;48.996;9.594;2023-09-19T08:21:39;4.65;;;1.73;;
17175;SDS011;8703;48.996;9.594;2023-09-19T08:24:10;4.55;;;1.60;;
17175;SDS011;8703;48.996;9.594;2023-09-19T08:26:39;2.20;;;1.20;;
17175;SDS011;8703;48.996;9.594;2023-09-19T08:29:07;2.88;;;0.85;;
17175;SDS011;8703;48.996;9.594;2023-09-19T08:31:37;3.47;;;1.10;;
17175;SDS011;8703;48.996;9.594;2023-09-19T08:34:04;2.55;;;1.00;;
17175;SDS011;8703;48.996;9.594;2023-09-19T08:36:31;2.60;;;1.08;;
17175;SDS011;8703;48.996;9.594;2023-09-19T08:39:00;2.95;;;1.17;;
17175;SDS011;8703;48.996;9.594;2023-09-19T08:41:28;3.47;;;1.13;;
17175;SDS011;8703;48.996;9.594;2023-09-19T08:43:58;3.30;;;1.00;;
17175;SDS011;8703;48.996;9.594;2023-09-19T08:46:27;3.78;;;1.25;;
17175;SDS011;8703;48.996;9.594;2023-09-19T08:48:57;2.40;;;0.80;;
17175;SDS011;8703;48.996;9.594;2023-09-19T08:51:30;1.48;;;0.80;;
17175;SDS011;8703;48.996;9.594;2023-09-19T08:54:07;2.58;;;0.90;;
17175;SDS011;8703;48.996;9.594;2023-09-19T08:56:34;2.00;;;0.90;;
17175;SDS011;8703;48.996;9.594;2023-09-19T08:59:04;1.88;;;0.70;;
17175;SDS011;8703;48.996;9.594;2023-09-19T09:01:32;1.20;;;0.60;;
17175;SDS011;8703;48.996;9.594;2023-09-19T09:04:01;4.07;;;0.80;;
17175;SDS011;8703;48.996;9.594;2023-09-19T09:06:29;2.75;;;0.98;;
17175;SDS011;8703;48.996;9.594;2023-09-19T09:08:57;2.42;;;0.77;;
17175;SDS011;8703;48.996;9.594;2023-09-19T09:11:26;2.85;;;0.80;;
17175;SDS011;8703;48.996;9.594;2023-09-19T09:13:54;1.15;;;0.70;;
17175;SDS011;8703;48.996;9.594;2023-09-19T09:16:22;2.85;;;1.10;;
17175;SDS011;8703;48.996;9.594;2023-09-19T09:18:51;1.98;;;0.90;;
17175;SDS011;8703;48.996;9.594;2023-09-19T09:21:19;2.05;;;0.90;;
17175;SDS011;8703;48.996;9.594;2023-09-19T09:23:47;1.42;;;0.98;;
17175;SDS011;8703;48.996;9.594;2023-09-19T09:26:15;2.88;;;0.90;;
17175;SDS011;8703;48.996;9.594;2023-09-19T09:28:45;2.42;;;0.95;;
17175;SDS011;8703;48.996;9.594;2023-09-19T09:31:24;1.52;;;0.77;;
17175;SDS011;8703;48.996;9.594;2023-09-19T09:33:53;2.85;;;0.90;;
17175;SDS011;8703;48.996;9.594;2023-09-19T09:36:33;1.60;;;0.65;;
17175;SDS011;8703;48.996;9.594;2023-09-19T09:39:01;1.83;;;1.10;;
17175;SDS011;8703;48.996;9.594;2023-09-19T09:41:41;2.33;;;1.00;;
17175;SDS011;8703;48.996;9.594;2023-09-19T09:44:16;2.20;;;1.10;;
17175;SDS011;8703;48.996;9.594;2023-09-19T09:46:44;1.52;;;0.90;;
17175;SDS011;8703;48.996;9.594;2023-09-19T09:49:46;1.40;;;1.02;;
17175;SDS011;8703;48.996;9.594;2023-09-19T09:52:19;1.65;;;1.10;;
17175;SDS011;8703;48.996;9.594;2023-09-19T09:54:58;3.95;;;1.05;;
17175;SDS011;8703;48.996;9.594;2023-09-19T09:57:30;1.65;;;1.00;;
17175;SDS011;8703;48.996;9.594;2023-09-19T10:00:00;2.33;;;1.10;;
17175;SDS011;8703;48.996;9.594;2023-09-19T10:02:41;1.23;;;0.88;;
17175;SDS011;8703;48.996;9.594;2023-09-19T10:05:12;1.58;;;1.00;;
17175;SDS011;8703;48.996;9.594;2023-09-19T10:07:46;3.10;;;1.17;;
17175;SDS011;8703;48.996;9.594;2023-09-19T10:10:28;4.07;;;1.20;;
17175;SDS011;8703;48.996;9.594;2023-09-19T10:13:04;2.38;;;1.00;;
17175;SDS011;8703;48.996;9.594;2023-09-19T10:15:34;2.05;;;1.10;;
17175;SDS011;8703;48.996;9.594;2023-09-19T10:18:03;1.85;;;1.02;;
17175;SDS011;8703;48.996;9.594;2023-09-19T10:20:33;1.95;;;1.00;;
17175;SDS011;8703;48.996;9.594;2023-09-19T10:23:04;2.17;;;1.00;;
17175;SDS011;8703;48.996;9.594;2023-09-19T10:25:36;2.53;;;1.00;;
17175;SDS011;8703;48.996;9.594;2023-09-19T10:28:05;3.13;;;1.00;;
17175;SDS011;8703;48.996;9.594;2023-09-19T10:30:38;3.42;;;0.98;;
17175;SDS011;8703;48.996;9.594;2023-09-19T10:33:09;2.03;;;1.00;;
17175;SDS011;8703;48.996;9.594;2023-09-19T10:35:38;1.70;;;0.90;;
17175;SDS011;8703;48.996;9.594;2023-09-19T10:38:06;2.85;;;1.00;;
17175;SDS011;8703;48.996;9.594;2023-09-19T10:40:35;3.45;;;1.30;;
17175;SDS011;8703;48.996;9.594;2023-09-19T10:43:08;2.05;;;1.10;;
17175;SDS011;8703;48.996;9.594;2023-09-19T10:45:41;2.70;;;1.05;;
17175;SDS011;8703;48.996;9.594;2023-09-19T10:48:09;2.10;;;1.20;;
17175;SDS011;8703;48.996;9.594;2023-09-19T10:50:41;2.88;;;1.17;;
17175;SDS011;8703;48.996;9.594;2023-09-19T10:53:12;3.10;;;1.00;;
17175;SDS011;8703;48.996;9.594;2023-09-19T10:55:40;3.45;;;2.22;;
17175;SDS011;8703;48.996;9.594;2023-09-19T10:58:23;2.78;;;1.30;;
17175;SDS011;8703;48.996;9.594;2023-09-19T11:00:55;2.80;;;0.98;;
17175;SDS011;8703;48.996;9.594;2023-09-19T11:03:27;1.60;;;1.00;;
17175;SDS011;8703;48.996;9.594;2023-09-19T11:06:00;2.63;;;1.00;;
17175;SDS011;8703;48.996;9.594;2023-09-19T11:08:51;1.90;;;1.13;;
17175;SDS011;8703;48.996;9.594;2023-09-19T11:14:37;1.67;;;0.80;;
17175;SDS011;8703;48.996;9.594;2023-09-19T11:23:17;2.78;;;0.95;;
17175;SDS011;8703;48.996;9.594;2023-09-19T11:25:47;1.70;;;1.20;;
17175;SDS011;8703;48.996;9.594;2023-09-19T11:28:29;1.80;;;1.20;;
17175;SDS011;8703;48.996;9.594;2023-09-19T11:30:58;3.00;;;1.10;;
17175;SDS011;8703;48.996;9.594;2023-09-19T11:33:27;3.35;;;1.00;;
17175;SDS011;8703;48.996;9.594;2023-09-19T11:36:03;2.25;;;1.08;;
17175;SDS011;8703;48.996;9.594;2023-09-19T11:41:38;2.80;;;1.15;;
17175;SDS011;8703;48.996;9.594;2023-09-19T11:47:01;1.85;;;0.90;;
17175;SDS011;8703;48.996;9.594;2023-09-19T11:49:32;2.63;;;1.10;;
17175;SDS011;8703;48.996;9.594;2023-09-19T11:52:02;2.55;;;1.10;;
17175;SDS011;8703;48.996;9.594;2023-09-19T11:54:33;2.30;;;1.00;;
17175;SDS011;8703;48.996;9.594;2023-09-19T11:57:05;2.42;;;1.02;;
17175;SDS011;8703;48.996;9.594;2023-09-19T11:59:33;3.17;;;1.27;;
17175;SDS011;8703;48.996;9.594;2023-09-19T12:02:03;1.45;;;0.90;;
17175;SDS011;8703;48.996;9.594;2023-09-19T12:04:35;2.30;;;1.17;;
17175;SDS011;8703;48.996;9.594;2023-09-19T12:07:04;1.98;;;1.10;;
17175;SDS011;8703;48.996;9.594;2023-09-19T12:09:36;1.77;;;1.02;;
17175;SDS011;8703;48.996;9.594;2023-09-19T12:12:05;1.88;;;1.20;;
17175;SDS011;8703;48.996;9.594;2023-09-19T12:14:32;2.45;;;1.13;;
17175;SDS011;8703;48.996;9.594;2023-09-19T12:17:00;2.83;;;1.20;;
17175;SDS011;8703;48.996;9.594;2023-09-19T12:19:28;1.83;;;0.98;;
17175;SDS011;8703;48.996;9.594;2023-09-19T12:21:58;2.60;;;1.02;;
17175;SDS011;8703;48.996;9.594;2023-09-19T12:24:29;3.17;;;1.15;;
17175;SDS011;8703;48.996;9.594;2023-09-19T12:27:00;1.52;;;1.00;;
17175;SDS011;8703;48.996;9.594;2023-09-19T12:29:29;1.95;;;1.00;;
17175;SDS011;8703;48.996;9.594;2023-09-19T12:32:01;2.90;;;1.05;;
17175;SDS011;8703;48.996;9.594;2023-09-19T12:34:31;2.28;;;1.15;;
17175;SDS011;8703;48.996;9.594;2023-09-19T12:37:05;2.65;;;1.10;;
17175;SDS011;8703;48.996;9.594;2023-09-19T12:39:37;2.20;;;1.00;;
17175;SDS011;8703;48.996;9.594;2023-09-19T12:42:09;2.42;;;1.30;;
17175;SDS011;8703;48.996;9.594;2023-09-19T12:44:40;1.70;;;1.10;;
17175;SDS011;8703;48.996;9.594;2023-09-19T12:47:09;2.78;;;1.10;;
17175;SDS011;8703;48.996;9.594;2023-09-19T12:52:44;2.80;;;1.15;;
17175;SDS011;8703;48.996;9.594;2023-09-19T12:55:20;2.60;;;1.00;;
17175;SDS011;8703;48.996;9.594;2023-09-19T12:57:55;1.92;;;1.00;;
17175;SDS011;8703;48.996;9.594;2023-09-19T13:00:34;2.80;;;1.10;;
17175;SDS011;8703;48.996;9.594;2023-09-19T13:03:12;1.65;;;1.10;;
17175;SDS011;8703;48.996;9.594;2023-09-19T13:05:47;1.80;;;1.00;;
17175;SDS011;8703;48.996;9.594;2023-09-19T13:08:20;1.98;;;0.90;;
17175;SDS011;8703;48.996;9.594;2023-09-19T13:13:46;2.35;;;1.35;;
17175;SDS011;8703;48.996;9.594;2023-09-19T13:16:19;1.88;;;1.00;;
17175;SDS011;8703;48.996;9.594;2023-09-19T13:18:49;2.33;;;0.98;;
17175;SDS011;8703;48.996;9.594;2023-09-19T13:21:26;1.83;;;0.95;;
17175;SDS011;8703;48.996;9.594;2023-09-19T13:26:44;2.03;;;1.00;;
17175;SDS011;8703;48.996;9.594;2023-09-19T13:29:11;2.50;;;1.02;;
17175;SDS011;8703;48.996;9.594;2023-09-19T13:31:45;2.25;;;1.02;;
17175;SDS011;8703;48.996;9.594;2023-09-19T13:34:12;1.38;;;1.05;;
17175;SDS011;8703;48.996;9.594;2023-09-19T13:36:41;1.88;;;1.00;;
17175;SDS011;8703;48.996;9.594;2023-09-19T13:39:10;1.75;;;1.00;;
17175;SDS011;8703;48.996;9.594;2023-09-19T13:41:38;2.45;;;1.10;;
17175;SDS011;8703;48.996;9.594;2023-09-19T13:44:06;2.38;;;1.25;;
17175;SDS011;8703;48.996;9.594;2023-09-19T13:46:35;2.08;;;0.90;;
17175;SDS011;8703;48.996;9.594;2023-09-19T13:49:03;2.08;;;1.17;;
17175;SDS011;8703;48.996;9.594;2023-09-19T13:51:30;1.98;;;1.10;;
17175;SDS011;8703;48.996;9.594;2023-09-19T13:53:58;3.33;;;1.10;;
17175;SDS011;8703;48.996;9.594;2023-09-19T13:56:27;2.15;;;1.02;;
17175;SDS011;8703;48.996;9.594;2023-09-19T13:58:56;1.45;;;0.90;;
17175;SDS011;8703;48.996;9.594;2023-09-19T14:01:23;2.10;;;0.98;;
17175;SDS011;8703;48.996;9.594;2023-09-19T14:03:52;1.73;;;1.13;;
17175;SDS011;8703;48.996;9.594;2023-09-19T14:06:21;1.73;;;1.15;;
17175;SDS011;8703;48.996;9.594;2023-09-19T14:08:49;1.88;;;1.00;;
17175;SDS011;8703;48.996;9.594;2023-09-19T14:11:17;2.40;;;1.08;;
17175;SDS011;8703;48.996;9.594;2023-09-19T14:13:46;1.88;;;1.00;;
17175;SDS011;8703;48.996;9.594;2023-09-19T14:16:14;4.45;;;1.10;;
17175;SDS011;8703;48.996;9.594;2023-09-19T14:18:41;2.35;;;0.85;;
17175;SDS011;8703;48.996;9.594;2023-09-19T14:21:10;2.20;;;0.90;;
17175;SDS011;8703;48.996;9.594;2023-09-19T14:23:39;2.03;;;1.00;;
17175;SDS011;8703;48.996;9.594;2023-09-19T14:26:08;2.70;;;0.80;;
17175;SDS011;8703;48.996;9.594;2023-09-19T14:28:35;2.67;;;0.90;;
17175;SDS011;8703;48.996;9.594;2023-09-19T14:31:05;2.28;;;0.80;;
17175;SDS011;8703;48.996;9.594;2023-09-19T14:33:33;2.65;;;1.20;;
17175;SDS011;8703;48.996;9.594;2023-09-19T14:36:04;4.20;;;0.95;;
17175;SDS011;8703;48.996;9.594;2023-09-19T14:38:33;2.88;;;1.05;;
17175;SDS011;8703;48.996;9.594;2023-09-19T14:41:01;3.40;;;1.08;;
17175;SDS011;8703;48.996;9.594;2023-09-19T14:43:29;2.47;;;1.15;;
17175;SDS011;8703;48.996;9.594;2023-09-19T14:45:57;3.08;;;1.10;;
17175;SDS011;8703;48.996;9.594;2023-09-19T14:48:29;4.13;;;1.02;;
17175;SDS011;8703;48.996;9.594;2023-09-19T14:51:01;1.52;;;0.98;;
17175;SDS011;8703;48.996;9.594;2023-09-19T14:53:28;1.90;;;1.00;;
17175;SDS011;8703;48.996;9.594;2023-09-19T14:55:56;1.20;;;0.90;;
17175;SDS011;8703;48.996;9.594;2023-09-19T14:58:26;1.45;;;0.98;;
17175;SDS011;8703;48.996;9.594;2023-09-19T15:01:00;1.83;;;1.10;;
17175;SDS011;8703;48.996;9.594;2023-09-19T15:03:30;2.58;;;1.10;;
17175;SDS011;8703;48.996;9.594;2023-09-19T15:05:59;2.65;;;1.15;;
17175;SDS011;8703;48.996;9.594;2023-09-19T15:08:26;3.10;;;1.10;;
17175;SDS011;8703;48.996;9.594;2023-09-19T15:10:54;1.98;;;1.02;;
17175;SDS011;8703;48.996;9.594;2023-09-19T15:13:23;2.38;;;0.90;;
17175;SDS011;8703;48.996;9.594;2023-09-19T15:15:57;2.33;;;1.10;;
17175;SDS011;8703;48.996;9.594;2023-09-19T15:18:26;1.95;;;1.00;;
17175;SDS011;8703;48.996;9.594;2023-09-19T15:20:55;2.08;;;1.05;;
17175;SDS011;8703;48.996;9.594;2023-09-19T15:23:22;1.65;;;1.08;;
17175;SDS011;8703;48.996;9.594;2023-09-19T15:25:50;2.55;;;1.30;;
17175;SDS011;8703;48.996;9.594;2023-09-19T15:28:18;2.75;;;1.10;;
17175;SDS011;8703;48.996;9.594;2023-09-19T15:30:47;3.53;;;1.20;;
17175;SDS011;8703;48.996;9.594;2023-09-19T15:33:15;3.22;;;1.25;;
17175;SDS011;8703;48.996;9.594;2023-09-19T15:35:42;4.03;;;1.00;;
17175;SDS011;8703;48.996;9.594;2023-09-19T15:38:11;3.15;;;1.00;;
17175;SDS011;8703;48.996;9.594;2023-09-19T15:40:45;2.58;;;1.10;;
17175;SDS011;8703;48.996;9.594;2023-09-19T15:43:12;2.28;;;1.02;;
17175;SDS011;8703;48.996;9.594;2023-09-19T15:45:42;2.70;;;1.10;;